Time;durP1;ratioP1;P1;durP2;ratioP2;P2;SDS_P1;SDS_P2;PMS_P1;PMS_P2;Temp;Humidity;BMP_temperature;BMP_pressure;BME280_temperature;BME280_humidity;BME280_pressure;Samples;Min_cycle;Max_cycle;Signal;HPM_P1;HPM_P2
2023/09/10 00:00:50;;;;;;;14.70;13.20;;;;;;;21.91;100.00;101670.31;5012554;28;20091;-68
2023/09/10 00:03:16;;;;;;;16.50;14.80;;;;;;;21.91;100.00;101664.13;5020636;28;20829;-67
2023/09/10 00:05:43;;;;;;;16.33;14.23;;;;;;;21.94;100.00;101665.59;5013189;28;20049;-67
2023/09/10 00:08:10;;;;;;;18.13;16.23;;;;;;;21.95;100.00;101675.25;5019132;28;21729;-68
2023/09/10 00:10:38;;;;;;;17.90;15.87;;;;;;;21.95;100.00;101670.72;5009966;28;20153;-67
2023/09/10 00:13:05;;;;;;;19.52;16.85;;;;;;;21.94;100.00;101671.75;5015082;28;20053;-67
2023/09/10 00:15:31;;;;;;;17.25;15.48;;;;;;;21.92;100.00;101674.63;5020447;28;20076;-66
2023/09/10 00:17:58;;;;;;;20.27;17.42;;;;;;;21.88;100.00;101676.06;5014695;28;20832;-67
2023/09/10 00:20:26;;;;;;;18.67;16.77;;;;;;;21.88;100.00;101675.25;5020859;28;20107;-68
2023/09/10 00:22:53;;;;;;;20.48;18.02;;;;;;;21.84;100.00;101671.31;5011147;28;20430;-67
2023/09/10 00:25:19;;;;;;;21.38;19.08;;;;;;;21.82;100.00;101665.38;5016472;28;20072;-67
2023/09/10 00:27:46;;;;;;;23.65;18.05;;;;;;;21.78;100.00;101672.94;5016818;28;20168;-68
2023/09/10 00:30:13;;;;;;;21.33;19.02;;;;;;;21.71;100.00;101672.09;5016856;28;20433;-67
2023/09/10 00:32:39;;;;;;;22.60;20.27;;;;;;;21.69;100.00;101671.47;5022236;28;20475;-68
2023/09/10 00:35:08;;;;;;;21.38;19.17;;;;;;;21.66;100.00;101675.38;5017272;28;20136;-68
2023/09/10 00:37:34;;;;;;;23.30;19.42;;;;;;;21.63;100.00;101666.94;5025176;28;20753;-69
2023/09/10 00:40:01;;;;;;;22.02;19.85;;;;;;;21.58;100.00;101666.69;5011076;28;20053;-68
2023/09/10 00:42:27;;;;;;;22.58;20.17;;;;;;;21.57;100.00;101663.22;5018104;28;20057;-68
2023/09/10 00:44:54;;;;;;;21.05;18.95;;;;;;;21.57;100.00;101667.72;5022339;28;20049;-68
2023/09/10 00:47:21;;;;;;;21.40;19.25;;;;;;;21.56;100.00;101666.06;5018709;28;20071;-68
2023/09/10 00:49:49;;;;;;;21.98;19.13;;;;;;;21.55;100.00;101661.75;5020980;28;20129;-68
2023/09/10 00:52:16;;;;;;;;;;;;;;;21.54;100.00;101666.25;5017839;28;20049;-69
2023/09/10 00:54:43;;;;;;;21.08;18.80;;;;;;;21.49;100.00;101661.53;5011131;28;20020;-68
2023/09/10 00:57:10;;;;;;;22.77;20.02;;;;;;;21.44;100.00;101660.47;5007062;28;20552;-68
2023/09/10 00:59:36;;;;;;;21.92;19.63;;;;;;;21.40;100.00;101664.53;5014907;28;20137;-68
2023/09/10 01:02:03;;;;;;;22.40;20.05;;;;;;;21.40;100.00;101659.19;5019423;28;20129;-68
2023/09/10 01:04:29;;;;;;;21.50;19.35;;;;;;;21.40;100.00;101661.84;5000887;28;20058;-68
2023/09/10 01:06:56;;;;;;;22.30;19.42;;;;;;;21.40;100.00;101667.19;5023893;28;20080;-68
2023/09/10 01:09:22;;;;;;;20.58;18.52;;;;;;;21.40;100.00;101664.53;5012424;28;20108;-68
2023/09/10 01:12:14;;;;;;;22.65;19.63;;;;;;;21.38;100.00;101667.38;5010513;28;20513;-68
2023/09/10 01:14:48;;;;;;;21.98;19.83;;;;;;;21.33;100.00;101668.00;5019013;28;20181;-69
2023/09/10 01:17:51;;;;;;;21.27;19.13;;;;;;;21.33;100.00;101672.50;5014344;28;20465;-69
2023/09/10 01:20:41;;;;;;;23.25;20.70;;;;;;;21.25;100.00;101668.16;5013316;28;20053;-68
2023/09/10 01:23:14;;;;;;;22.13;19.90;;;;;;;21.25;100.00;101670.81;5016714;28;20060;-68
2023/09/10 01:25:41;;;;;;;23.77;20.60;;;;;;;21.19;100.00;101666.28;5008138;28;20083;-68
2023/09/10 01:28:07;;;;;;;21.95;19.60;;;;;;;21.14;100.00;101669.50;4999133;28;20057;-68
2023/09/10 01:30:34;;;;;;;25.02;22.42;;;;;;;21.12;100.00;101666.22;5021916;28;20479;-69
2023/09/10 01:33:13;;;;;;;23.80;21.45;;;;;;;21.11;100.00;101675.25;5013826;28;20049;-69
2023/09/10 01:36:01;;;;;;;24.15;21.75;;;;;;;21.07;100.00;101662.47;5004549;28;20077;-68
2023/09/10 01:38:54;;;;;;;27.08;23.13;;;;;;;21.04;100.00;101665.56;5010817;28;20140;-68
2023/09/10 01:41:21;;;;;;;23.85;21.42;;;;;;;21.04;100.00;101665.56;5023235;28;20061;-67
2023/09/10 01:43:48;;;;;;;23.73;21.03;;;;;;;21.04;100.00;101671.72;5018202;28;20697;-67
2023/09/10 01:46:16;;;;;;;26.38;23.45;;;;;;;21.01;100.00;101669.44;5025288;28;20144;-67
2023/09/10 01:48:44;;;;;;;26.23;22.42;;;;;;;21.03;100.00;101669.22;5018319;28;20141;-68
2023/09/10 01:51:10;;;;;;;28.60;21.73;;;;;;;21.01;100.00;101668.59;5016724;28;20059;-69
2023/09/10 01:53:37;;;;;;;23.13;20.73;;;;;;;21.01;100.00;101673.94;5021395;28;20064;-68
2023/09/10 01:56:03;;;;;;;23.15;20.67;;;;;;;21.04;100.00;101674.38;5006460;28;20089;-68
2023/09/10 01:58:30;;;;;;;22.88;20.48;;;;;;;21.06;100.00;101669.66;5024816;28;20133;-68
2023/09/10 02:00:57;;;;;;;24.98;20.52;;;;;;;21.08;100.00;101675.63;5019028;28;20593;-69
2023/09/10 02:03:23;;;;;;;22.58;20.00;;;;;;;21.10;100.00;101675.44;5023445;28;20127;-69
2023/09/10 02:05:50;;;;;;;22.77;20.25;;;;;;;21.13;100.00;101675.88;5017605;28;20045;-68
2023/09/10 02:08:16;;;;;;;21.77;18.60;;;;;;;21.17;100.00;101678.13;5015533;28;20067;-69
2023/09/10 02:10:43;;;;;;;19.75;17.65;;;;;;;21.21;100.00;101672.25;5023055;28;20136;-69
2023/09/10 02:13:09;;;;;;;23.92;21.67;;;;;;;21.26;100.00;101675.13;5016546;28;20049;-68
2023/09/10 02:15:36;;;;;;;23.55;19.77;;;;;;;21.25;100.00;101678.81;5023785;28;20148;-68
2023/09/10 02:18:03;;;;;;;24.10;20.63;;;;;;;21.25;100.00;101675.34;5002006;28;20349;-69
2023/09/10 02:20:34;;;;;;;22.95;20.52;;;;;;;21.26;100.00;101680.47;5021863;28;20056;-69
2023/09/10 02:23:00;;;;;;;25.63;22.90;;;;;;;21.21;100.00;101677.56;5011469;28;20089;-68
2023/09/10 02:25:27;;;;;;;24.13;21.90;;;;;;;21.17;100.00;101681.66;5000377;28;20057;-68
2023/09/10 02:27:53;;;;;;;24.38;21.13;;;;;;;21.12;100.00;101682.22;5018842;28;20126;-69
2023/09/10 02:30:20;;;;;;;24.45;21.80;;;;;;;21.11;100.00;101682.41;5005621;28;20050;-69
2023/09/10 02:32:46;;;;;;;29.60;22.27;;;;;;;21.08;100.00;101686.31;4999309;28;20057;-68
2023/09/10 02:35:13;;;;;;;23.95;21.65;;;;;;;21.11;100.00;101690.41;5015276;28;20056;-69
2023/09/10 02:37:39;;;;;;;22.02;19.60;;;;;;;21.12;100.00;101689.41;5019236;28;20057;-69
2023/09/10 02:40:07;;;;;;;23.67;21.13;;;;;;;21.13;100.00;101691.06;5020265;28;20046;-69
2023/09/10 02:42:34;;;;;;;24.15;21.73;;;;;;;21.07;100.00;101689.16;5017441;28;20053;-69
2023/09/10 02:45:02;;;;;;;23.45;21.05;;;;;;;21.04;100.00;101689.56;5019680;28;20049;-69
2023/09/10 02:47:28;;;;;;;23.95;21.35;;;;;;;21.03;100.00;101682.56;4998360;28;20534;-68
2023/09/10 02:49:55;;;;;;;23.70;21.30;;;;;;;21.01;100.00;101681.94;5030177;28;20063;-68
2023/09/10 02:52:24;;;;;;;23.23;20.83;;;;;;;21.00;100.00;101682.97;5020491;28;20150;-68
2023/09/10 02:54:51;;;;;;;24.10;21.55;;;;;;;20.99;100.00;101684.78;5013815;28;20081;-69
2023/09/10 02:57:17;;;;;;;22.77;20.45;;;;;;;20.97;100.00;101689.50;5020773;28;20049;-69
2023/09/10 02:59:44;;;;;;;22.13;20.02;;;;;;;20.94;100.00;101687.25;5001948;28;20836;-69
2023/09/10 03:02:10;;;;;;;22.25;19.88;;;;;;;20.92;100.00;101687.44;5012746;28;20066;-69
2023/09/10 03:04:37;;;;;;;22.10;19.35;;;;;;;20.89;100.00;101689.66;5001738;28;20057;-68
2023/09/10 03:07:03;;;;;;;21.02;18.77;;;;;;;20.88;100.00;101688.03;5005478;28;20053;-69
2023/09/10 03:09:30;;;;;;;22.92;19.70;;;;;;;20.86;100.00;101687.38;5022205;28;20053;-68
2023/09/10 03:12:22;;;;;;;21.40;19.33;;;;;;;20.87;100.00;101689.03;5013916;28;20133;-69
2023/09/10 03:14:49;;;;;;;23.70;21.30;;;;;;;20.80;100.00;101680.97;5018956;28;20054;-69
2023/09/10 03:17:17;;;;;;;25.88;23.17;;;;;;;20.73;100.00;101683.56;5018416;28;20246;-69
2023/09/10 03:19:44;;;;;;;27.63;23.55;;;;;;;20.69;100.00;101676.97;5021858;28;20136;-68
2023/09/10 03:22:11;;;;;;;31.02;25.50;;;;;;;20.66;100.00;101679.22;5017114;28;20525;-68
2023/09/10 03:24:38;;;;;;;27.65;24.10;;;;;;;20.63;100.00;101682.28;5024744;28;20049;-69
2023/09/10 03:27:05;;;;;;;29.05;26.20;;;;;;;20.62;100.00;101672.63;5006190;28;20514;-69
2023/09/10 03:29:35;;;;;;;28.42;25.38;;;;;;;20.63;100.00;101671.63;5014330;28;20132;-69
2023/09/10 03:32:04;;;;;;;28.73;25.50;;;;;;;20.62;100.00;101673.47;5021356;28;20065;-69
2023/09/10 03:34:31;;;;;;;29.75;26.63;;;;;;;20.65;100.00;101669.56;5006641;28;20108;-69
2023/09/10 03:36:58;;;;;;;28.33;25.40;;;;;;;20.67;100.00;101670.22;5024026;28;20097;-69
2023/09/10 03:39:25;;;;;;;27.58;24.73;;;;;;;20.71;100.00;101666.13;5017943;28;20128;-69
2023/09/10 03:41:54;;;;;;;30.08;25.80;;;;;;;20.69;100.00;101670.84;5007613;28;20133;-69
2023/09/10 03:44:21;;;;;;;28.90;26.00;;;;;;;20.67;100.00;101670.22;5011865;28;20762;-69
2023/09/10 03:46:47;;;;;;;28.25;25.35;;;;;;;20.67;100.00;101673.69;5004197;28;20053;-69
2023/09/10 03:49:14;;;;;;;27.52;24.58;;;;;;;20.66;100.00;101663.22;5022075;28;20079;-68
2023/09/10 03:51:40;;;;;;;26.45;23.70;;;;;;;20.67;100.00;101662.22;5006824;28;20775;-69
2023/09/10 03:54:11;;;;;;;27.55;24.70;;;;;;;20.65;100.00;101662.41;5010587;28;20762;-68
2023/09/10 03:56:39;;;;;;;26.92;24.15;;;;;;;20.64;100.00;101665.25;5013555;28;20049;-69
2023/09/10 03:59:07;;;;;;;26.17;23.38;;;;;;;20.63;100.00;101658.28;5019234;28;20081;-69
2023/09/10 04:01:34;;;;;;;27.00;24.10;;;;;;;20.60;100.00;101656.84;5019140;28;20554;-69
2023/09/10 04:04:02;;;;;;;27.58;24.67;;;;;;;20.60;100.00;101658.66;5022881;28;20122;-68
2023/09/10 04:06:29;;;;;;;28.40;25.15;;;;;;;20.53;100.00;101659.41;5024728;28;20133;-69
2023/09/10 04:08:55;;;;;;;33.33;26.98;;;;;;;20.53;100.00;101661.25;5001635;28;20049;-69
2023/09/10 04:11:22;;;;;;;31.00;27.25;;;;;;;20.53;100.00;101663.91;5022763;28;20049;-68
2023/09/10 04:13:48;;;;;;;29.92;26.50;;;;;;;20.51;100.00;101656.09;5021385;28;20103;-68
2023/09/10 04:16:15;;;;;;;31.08;27.98;;;;;;;20.53;100.00;101655.91;5026827;28;20051;-68
2023/09/10 04:18:41;;;;;;;28.65;25.65;;;;;;;20.50;100.00;101651.81;5027498;28;20054;-69
2023/09/10 04:21:12;;;;;;;32.17;28.83;;;;;;;20.44;100.00;101655.22;5021328;28;20049;-68
2023/09/10 04:23:39;;;;;;;32.15;28.75;;;;;;;20.44;100.00;101657.06;5020579;28;20055;-69
2023/09/10 04:26:05;;;;;;;32.13;28.83;;;;;;;20.42;100.00;101657.25;5019228;28;20103;-68
2023/09/10 04:28:32;;;;;;;31.25;28.05;;;;;;;20.41;100.00;101655.59;5027736;28;20050;-68
2023/09/10 04:30:58;;;;;;;31.42;28.38;;;;;;;20.41;100.00;101660.94;5020763;28;20132;-68
2023/09/10 04:33:25;;;;;;;31.42;28.13;;;;;;;20.38;100.00;101660.50;5028479;28;20065;-68
2023/09/10 04:35:57;;;;;;;33.67;29.27;;;;;;;20.38;100.00;101657.81;5021489;28;20050;-68
2023/09/10 04:38:24;;;;;;;30.95;27.38;;;;;;;20.38;100.00;101666.63;5018480;28;20059;-69
2023/09/10 04:40:50;;;;;;;31.92;28.55;;;;;;;20.36;100.00;101660.69;5026992;28;20053;-68
2023/09/10 04:43:17;;;;;;;30.88;26.98;;;;;;;20.32;100.00;101662.06;5021574;28;20114;-68
2023/09/10 04:45:43;;;;;;;31.67;27.60;;;;;;;20.31;100.00;101658.59;5020501;28;20133;-68
2023/09/10 04:48:12;;;;;;;32.75;28.58;;;;;;;20.31;100.00;101658.59;5015010;28;20042;-69
2023/09/10 04:50:39;;;;;;;33.08;29.83;;;;;;;20.33;100.00;101659.22;5026477;28;20053;-68
2023/09/10 04:53:06;;;;;;;30.98;27.83;;;;;;;20.33;100.00;101655.75;5016701;28;20057;-69
2023/09/10 04:55:33;;;;;;;32.45;29.20;;;;;;;20.32;100.00;101659.41;5021074;28;20144;-68
2023/09/10 04:57:59;;;;;;;33.03;29.48;;;;;;;20.31;100.00;101663.09;5021052;28;20080;-68
2023/09/10 05:00:26;;;;;;;32.05;28.73;;;;;;;20.30;100.00;101662.25;5020625;28;20497;-69
2023/09/10 05:02:52;;;;;;;31.75;28.58;;;;;;;20.30;100.00;101662.25;5017610;28;20046;-68
2023/09/10 05:05:19;;;;;;;31.20;27.80;;;;;;;20.30;100.00;101664.91;5007808;28;20436;-68
2023/09/10 05:07:49;;;;;;;31.17;28.05;;;;;;;20.30;100.00;101674.75;5014881;28;20072;-68
2023/09/10 05:10:16;;;;;;;32.42;28.60;;;;;;;20.27;100.00;101672.50;5013572;28;20120;-69
2023/09/10 05:12:43;;;;;;;32.35;28.83;;;;;;;20.27;100.00;101673.31;5020778;28;20136;-69
2023/09/10 05:15:11;;;;;;;31.73;28.40;;;;;;;20.30;100.00;101680.09;5025497;28;20084;-68
2023/09/10 05:17:38;;;;;;;33.58;30.05;;;;;;;20.30;100.00;101680.09;5009982;28;20477;-68
2023/09/10 05:20:06;;;;;;;30.13;26.90;;;;;;;20.28;100.00;101680.28;5014674;28;20053;-68
2023/09/10 05:22:32;;;;;;;30.90;27.80;;;;;;;20.24;100.00;101676.34;5017693;28;20162;-68
2023/09/10 05:24:59;;;;;;;29.55;26.45;;;;;;;20.27;100.00;101683.97;5024933;28;20052;-69
2023/09/10 05:27:25;;;;;;;31.52;28.27;;;;;;;20.25;100.00;101680.66;5026226;28;20045;-68
2023/09/10 05:29:52;;;;;;;30.63;27.27;;;;;;;20.27;100.00;101689.28;5016080;28;20141;-69
2023/09/10 05:32:18;;;;;;;34.22;29.67;;;;;;;20.29;100.00;101683.78;5019513;28;20056;-68
2023/09/10 05:34:45;;;;;;;32.08;28.58;;;;;;;20.29;100.00;101691.78;5011624;28;20053;-68
2023/09/10 05:37:12;;;;;;;31.30;28.00;;;;;;;20.27;100.00;101686.63;5023965;28;20421;-68
2023/09/10 05:39:38;;;;;;;31.50;28.17;;;;;;;20.29;100.00;101689.94;5014993;28;20085;-69
2023/09/10 05:42:05;;;;;;;34.08;30.48;;;;;;;20.26;100.00;101695.63;5019655;28;20057;-69
2023/09/10 05:44:31;;;;;;;34.38;30.65;;;;;;;20.25;100.00;101696.66;5014090;28;20462;-69
2023/09/10 05:46:58;;;;;;;34.08;30.48;;;;;;;20.23;100.00;101682.69;5009288;28;20453;-68
2023/09/10 05:49:25;;;;;;;35.80;32.08;;;;;;;20.24;100.00;101683.50;5017043;28;20052;-69
2023/09/10 05:51:51;;;;;;;35.35;31.60;;;;;;;20.26;100.00;101690.28;5002901;28;20064;-69
2023/09/10 05:54:18;;;;;;;36.67;32.78;;;;;;;20.26;100.00;101690.28;5017274;28;20060;-68
2023/09/10 05:56:44;;;;;;;35.88;32.25;;;;;;;20.28;100.00;101682.13;5021185;28;20057;-69
2023/09/10 05:59:10;;;;;;;37.20;33.17;;;;;;;20.28;100.00;101687.44;5012324;28;20362;-68
2023/09/10 06:01:37;;;;;;;39.97;35.78;;;;;;;20.30;100.00;101685.41;5016022;28;20049;-68
2023/09/10 06:04:04;;;;;;;39.58;35.42;;;;;;;20.35;100.00;101683.03;5018436;28;20049;-69
2023/09/10 06:06:30;;;;;;;39.92;35.72;;;;;;;20.37;100.00;101688.16;5020218;28;20050;-69
2023/09/10 06:08:57;;;;;;;37.63;33.55;;;;;;;20.39;100.00;101691.47;5013617;28;20169;-68
2023/09/10 06:11:23;;;;;;;37.03;33.40;;;;;;;20.42;100.00;101691.88;5018091;28;20054;-69
2023/09/10 06:13:50;;;;;;;35.22;31.45;;;;;;;20.48;100.00;101687.63;5015978;28;20051;-68
2023/09/10 06:16:16;;;;;;;37.85;33.53;;;;;;;20.49;100.00;101690.13;5013704;28;20045;-68
2023/09/10 06:18:43;;;;;;;36.53;30.33;;;;;;;20.54;100.00;101689.53;5013578;28;20049;-68
2023/09/10 06:21:09;;;;;;;34.83;31.23;;;;;;;20.60;100.00;101698.63;5013248;28;20049;-68
2023/09/10 06:23:36;;;;;;;36.53;32.58;;;;;;;20.64;100.00;101705.22;5006627;28;20056;-69
2023/09/10 06:26:02;;;;;;;34.28;30.65;;;;;;;20.66;100.00;101698.72;5012490;28;20052;-68
2023/09/10 06:28:29;;;;;;;35.25;30.48;;;;;;;20.72;100.00;101700.59;5006390;28;20104;-69
2023/09/10 06:30:55;;;;;;;34.45;30.70;;;;;;;20.74;100.00;101695.91;5015311;28;20570;-69
2023/09/10 06:33:22;;;;;;;34.15;30.55;;;;;;;20.79;100.00;101702.50;5019363;28;20050;-68
2023/09/10 06:35:48;;;;;;;35.60;31.65;;;;;;;20.80;100.00;101691.66;5025521;28;20483;-69
2023/09/10 06:38:15;;;;;;;36.17;30.70;;;;;;;20.89;100.00;101703.81;5013762;28;20053;-69
2023/09/10 06:40:42;;;;;;;32.15;28.95;;;;;;;20.92;100.00;101707.94;5016201;28;20060;-69
2023/09/10 06:43:09;;;;;;;34.10;30.40;;;;;;;20.93;100.00;101705.09;5011583;28;20124;-68
2023/09/10 06:45:36;;;;;;;34.28;30.80;;;;;;;21.00;100.00;101705.13;5008959;28;20046;-68
2023/09/10 06:48:03;;;;;;;35.60;31.87;;;;;;;21.06;100.00;101707.00;5023120;28;20053;-69
2023/09/10 06:50:30;;;;;;;33.40;29.77;;;;;;;21.11;100.00;101717.94;5011573;28;20141;-68
2023/09/10 06:52:56;;;;;;;33.92;30.40;;;;;;;21.18;100.00;101706.47;5008462;28;20058;-69
2023/09/10 06:55:23;;;;;;;33.22;29.73;;;;;;;21.22;100.00;101708.56;4996159;28;20096;-69
2023/09/10 06:57:51;;;;;;;;;;;;;;;21.30;100.00;101710.25;5014978;28;20057;-69
2023/09/10 07:00:18;;;;;;;32.33;28.00;;;;;;;21.32;100.00;101711.69;5017764;28;20019;-69
2023/09/10 07:02:44;;;;;;;23.42;20.88;;;;;;;21.41;100.00;101715.03;5025413;28;20081;-69
2023/09/10 07:05:11;;;;;;;36.20;31.85;;;;;;;21.48;100.00;101707.09;5018021;28;20107;-69
2023/09/10 07:07:37;;;;;;;35.35;31.80;;;;;;;21.52;100.00;101716.34;5001952;28;20497;-69
2023/09/10 07:10:04;;;;;;;36.45;32.50;;;;;;;21.57;100.00;101716.59;4998701;28;20056;-69
2023/09/10 07:12:31;;;;;;;35.05;26.90;;;;;;;21.62;100.00;101716.84;5005362;28;20050;-68
2023/09/10 07:14:58;;;;;;;38.60;34.50;;;;;;;21.69;100.00;101715.00;5023774;28;20049;-69
2023/09/10 07:17:24;;;;;;;38.17;34.00;;;;;;;21.73;100.00;101718.91;5016846;28;20051;-69
2023/09/10 07:19:50;;;;;;;38.42;34.22;;;;;;;21.78;100.00;101720.16;5020444;28;20053;-68
2023/09/10 07:22:17;;;;;;;38.67;34.75;;;;;;;21.85;100.00;101713.00;5018817;28;20140;-68
2023/09/10 07:24:43;;;;;;;39.70;35.40;;;;;;;21.89;100.00;101725.78;5013414;28;20465;-68
2023/09/10 07:27:10;;;;;;;43.00;38.42;;;;;;;21.93;100.00;101720.84;5021945;28;20061;-68
2023/09/10 07:29:37;;;;;;;41.28;36.88;;;;;;;21.99;100.00;101729.91;5010037;28;20062;-68
2023/09/10 07:32:03;;;;;;;33.25;29.55;;;;;;;22.01;100.00;101723.38;5018706;28;20081;-69
2023/09/10 07:34:30;;;;;;;40.35;36.10;;;;;;;22.08;100.00;101726.03;5018731;28;20049;-68
2023/09/10 07:36:56;;;;;;;47.90;40.60;;;;;;;22.11;100.00;101718.47;5017797;28;20060;-68
2023/09/10 07:39:23;;;;;;;30.13;26.85;;;;;;;22.26;100.00;101723.66;5020238;28;20597;-69
2023/09/10 07:41:49;;;;;;;34.00;30.30;;;;;;;22.36;100.00;101725.94;5016509;28;20140;-68
2023/09/10 07:44:16;;;;;;;43.10;38.67;;;;;;;22.43;100.00;101729.44;5028545;28;20132;-68
2023/09/10 07:46:42;;;;;;;40.22;35.70;;;;;;;22.48;100.00;101726.16;5020923;28;20057;-68
2023/09/10 07:49:09;;;;;;;41.72;37.17;;;;;;;22.56;100.00;101726.00;5029539;28;20456;-69
2023/09/10 07:51:35;;;;;;;46.63;41.33;;;;;;;22.63;100.00;101728.66;5020769;28;20084;-68
2023/09/10 07:54:02;;;;;;;45.58;40.47;;;;;;;22.67;100.00;101728.03;5019280;28;20050;-68
2023/09/10 07:56:28;;;;;;;37.25;33.30;;;;;;;22.73;100.00;101729.06;5022440;28;20162;-68
2023/09/10 07:58:54;;;;;;;43.83;39.28;;;;;;;22.81;100.00;101728.03;5012701;28;20108;-70
2023/09/10 08:01:21;;;;;;;41.80;37.03;;;;;;;22.85;100.00;101732.75;5025327;28;20053;-68
2023/09/10 08:03:47;;;;;;;47.08;42.17;;;;;;;22.90;100.00;101727.63;4999646;28;20144;-69
2023/09/10 08:06:15;;;;;;;47.55;42.53;;;;;;;22.98;100.00;101731.13;5010279;28;20755;-68
2023/09/10 08:08:41;;;;;;;44.60;39.87;;;;;;;23.05;100.00;101734.63;5019982;28;20766;-68
2023/09/10 08:11:08;;;;;;;42.13;37.67;;;;;;;23.12;100.00;101732.78;5010772;28;20401;-68
2023/09/10 08:13:34;;;;;;;47.95;41.85;;;;;;;23.18;100.00;101736.50;5021596;28;20068;-67
2023/09/10 08:16:01;;;;;;;45.78;39.75;;;;;;;23.25;100.00;101740.00;5021022;28;20114;-70
2023/09/10 08:18:27;;;;;;;49.85;42.00;;;;;;;23.34;100.00;101729.88;5016205;28;20049;-68
2023/09/10 08:20:54;;;;;;;43.75;38.15;;;;;;;23.42;100.00;101732.31;5013449;28;20478;-67
2023/09/10 08:23:20;;;;;;;48.58;43.35;;;;;;;23.56;100.00;101733.09;5023651;28;20057;-67
2023/09/10 08:25:51;;;;;;;45.53;40.72;;;;;;;23.71;100.00;101736.34;5023747;28;20065;-68
2023/09/10 08:28:18;;;;;;;46.95;39.10;;;;;;;23.85;100.00;101735.28;5020086;28;20086;-68
2023/09/10 08:30:44;;;;;;;46.15;41.10;;;;;;;24.04;100.00;101738.09;5020020;28;20045;-68
2023/09/10 08:33:11;;;;;;;42.95;36.95;;;;;;;24.22;100.00;101732.84;5012852;28;20140;-67
2023/09/10 08:35:51;;;;;;;48.42;39.78;;;;;;;24.40;100.00;101733.97;5021306;28;20056;-68
2023/09/10 08:38:18;;;;;;;43.60;38.88;;;;;;;24.58;100.00;101728.75;5019046;28;20045;-68
2023/09/10 08:40:52;;;;;;;44.37;38.43;;;;;;;24.76;100.00;101732.53;5026815;28;20498;-68
2023/09/10 08:43:21;;;;;;;34.95;31.17;;;;;;;24.96;100.00;101727.78;5017112;28;20297;-68
2023/09/10 08:45:49;;;;;;;46.00;38.08;;;;;;;25.14;100.00;101724.31;5009574;28;20053;-69
2023/09/10 08:48:18;;;;;;;37.35;33.22;;;;;;;25.36;100.00;101723.91;5021034;28;20413;-67
2023/09/10 08:50:48;;;;;;;43.75;38.80;;;;;;;25.56;100.00;101726.38;5019327;28;20425;-67
2023/09/10 08:53:16;;;;;;;;;;;;;;;25.71;100.00;101723.31;5017782;28;20049;-67
2023/09/10 08:55:46;;;;;;;39.10;33.58;;;;;;;25.84;100.00;101725.84;5007730;28;20399;-68
2023/09/10 08:58:14;;;;;;;33.03;25.50;;;;;;;26.02;100.00;101725.00;5024080;28;20057;-68
2023/09/10 09:00:41;;;;;;;40.72;34.22;;;;;;;26.17;100.00;101719.22;5006309;28;20053;-68
2023/09/10 09:03:07;;;;;;;40.75;34.92;;;;;;;26.33;100.00;101725.81;5019573;28;20931;-68
2023/09/10 09:05:35;;;;;;;39.25;31.13;;;;;;;26.43;100.00;101728.78;5006263;28;20049;-67
2023/09/10 09:08:15;;;;;;;38.67;32.72;;;;;;;26.57;100.00;101724.00;5011073;28;20065;-68
2023/09/10 09:10:44;;;;;;;41.35;33.28;;;;;;;26.68;100.00;101725.09;5015277;28;20053;-67
2023/09/10 09:13:12;;;;;;;32.85;28.65;;;;;;;26.87;100.00;101729.31;5004327;28;20107;-68
2023/09/10 09:15:40;;;;;;;38.63;33.65;;;;;;;27.00;99.74;101731.78;5017050;28;20053;-67
2023/09/10 09:18:09;;;;;;;38.67;32.03;;;;;;;27.12;98.29;101728.28;5014119;28;20473;-67
2023/09/10 09:20:38;;;;;;;37.95;31.52;;;;;;;27.23;99.45;101720.19;5021356;28;20041;-67
2023/09/10 09:23:29;;;;;;;36.95;30.88;;;;;;;27.36;98.63;101718.31;5018522;28;20130;-67
2023/09/10 09:25:56;;;;;;;36.83;31.25;;;;;;;27.52;96.91;101714.91;5013203;28;20383;-67
2023/09/10 09:28:26;;;;;;;35.80;29.90;;;;;;;27.67;94.29;101718.94;5015407;28;20099;-67
2023/09/10 09:30:53;;;;;;;37.58;32.05;;;;;;;27.78;92.36;101713.53;5007482;28;20698;-67
2023/09/10 09:33:20;;;;;;;38.38;31.45;;;;;;;27.89;92.71;101711.84;5021181;28;20053;-68
2023/09/10 09:35:46;;;;;;;33.83;28.02;;;;;;;28.06;90.19;101711.09;5014526;28;20140;-67
2023/09/10 09:38:13;;;;;;;29.98;24.85;;;;;;;28.24;87.77;101707.34;5020438;28;20152;-67
2023/09/10 09:40:40;;;;;;;34.80;28.48;;;;;;;28.44;87.33;101704.19;5021060;28;20417;-67
2023/09/10 09:43:08;;;;;;;34.55;29.40;;;;;;;28.61;86.30;101701.53;5007667;28;20045;-67
2023/09/10 09:45:45;;;;;;;35.25;27.73;;;;;;;28.68;86.84;101699.47;5017566;28;20093;-67
2023/09/10 09:48:12;;;;;;;37.33;29.92;;;;;;;28.86;86.66;101709.19;5009989;28;20072;-66
2023/09/10 09:50:38;;;;;;;33.90;29.10;;;;;;;28.97;85.70;101697.44;5021312;28;20049;-66
2023/09/10 09:53:05;;;;;;;38.30;28.08;;;;;;;29.10;83.52;101707.09;5016970;28;20084;-66
2023/09/10 09:55:32;;;;;;;35.67;28.58;;;;;;;29.18;81.65;101706.69;5021867;28;20079;-66
2023/09/10 09:57:59;;;;;;;31.75;26.55;;;;;;;29.31;80.80;101703.63;5015653;28;20261;-66
2023/09/10 10:00:25;;;;;;;39.85;25.50;;;;;;;29.51;82.48;101697.66;5011973;28;20056;-66
2023/09/10 10:02:52;;;;;;;29.50;24.33;;;;;;;29.66;77.71;101698.88;5020787;28;20490;-67
2023/09/10 10:05:19;;;;;;;31.00;24.30;;;;;;;29.83;77.77;101696.94;5016267;28;20503;-67
2023/09/10 10:07:46;;;;;;;28.27;24.80;;;;;;;29.96;76.56;101685.72;5020141;28;20132;-67
2023/09/10 10:10:19;;;;;;;35.13;27.58;;;;;;;30.12;73.99;101694.78;5014863;28;20041;-67
2023/09/10 10:12:47;;;;;;;28.80;21.98;;;;;;;30.28;75.01;101689.50;5014024;28;20153;-68
2023/09/10 10:15:15;;;;;;;27.30;21.95;;;;;;;30.47;75.39;101682.66;5022898;28;20045;-67
2023/09/10 10:17:43;;;;;;;27.00;23.02;;;;;;;30.58;71.59;101683.56;5015106;28;20524;-67
2023/09/10 10:20:10;;;;;;;26.02;19.55;;;;;;;30.74;72.34;101685.28;5024589;28;20049;-67
2023/09/10 10:22:37;;;;;;;;;;;;;;;30.91;72.90;101681.63;5017743;28;20144;-67
2023/09/10 10:25:05;;;;;;;27.52;21.65;;;;;;;31.00;69.83;101676.53;5019661;28;20146;-68
2023/09/10 10:27:34;;;;;;;27.02;20.13;;;;;;;31.21;71.21;101677.44;5011490;28;20162;-67
2023/09/10 10:30:06;;;;;;;22.90;19.90;;;;;;;31.24;68.50;101676.91;5022359;28;20049;-67
2023/09/10 10:32:41;;;;;;;26.95;19.50;;;;;;;31.39;67.75;101679.66;5022400;28;20076;-67
2023/09/10 10:35:10;;;;;;;31.42;21.33;;;;;;;31.47;65.46;101673.75;5017036;28;20484;-67
2023/09/10 10:37:44;;;;;;;25.42;20.83;;;;;;;31.69;67.21;101673.53;5022236;28;20450;-68
2023/09/10 10:40:19;;;;;;;26.60;19.60;;;;;;;31.85;65.13;101663.56;5012590;28;20057;-68
2023/09/10 10:42:54;;;;;;;25.23;19.08;;;;;;;32.00;62.52;101664.63;5019183;28;20057;-68
2023/09/10 10:45:24;;;;;;;24.83;18.02;;;;;;;32.15;63.27;101664.69;5016400;28;20077;-68
2023/09/10 10:47:51;;;;;;;21.80;14.90;;;;;;;32.26;60.69;101660.84;5021453;28;20127;-68
2023/09/10 10:50:26;;;;;;;21.50;18.10;;;;;;;32.40;62.86;101653.00;5021797;28;20102;-69
2023/09/10 10:53:04;;;;;;;21.80;15.93;;;;;;;32.54;61.42;101652.41;5019543;28;20135;-69
2023/09/10 10:55:33;;;;;;;21.25;13.80;;;;;;;32.64;58.47;101658.69;5015718;28;20060;-69
2023/09/10 10:58:00;;;;;;;20.95;13.32;;;;;;;32.70;57.97;101662.19;5014983;28;20052;-69
2023/09/10 11:00:27;;;;;;;22.02;14.15;;;;;;;32.77;56.31;101651.84;5023564;28;20076;-67
2023/09/10 11:03:13;;;;;;;19.80;12.13;;;;;;;32.85;56.25;101653.16;5016404;28;20059;-68
2023/09/10 11:06:07;;;;;;;19.10;12.10;;;;;;;33.06;56.28;101654.72;5019334;28;20128;-68
2023/09/10 11:08:45;;;;;;;22.02;13.57;;;;;;;33.19;54.72;101657.97;5010055;28;20045;-68